Terminal Aerodrome Forecast
Issued by NWS Cleveland, OH

Home | Current Version | Previous Version | Graphics & Text | Print | Product List | Glossary On
Versions: 1 2 3 4 5 6 7 8 9 10 11 12 13 14 15 16 17 18 19 20 21 22 23 24 25 26
000
FTUS41 KCLE 141100
TAFCLE
TAF
KCLE 141132Z 1412/1518 21020G32KT P6SM SCT060 OVC120
     FM141400 21024G36KT P6SM -SHRA SCT025 OVC050
      TEMPO 1414/1418 5SM -SHRA OVC025
     FM141800 21022G34KT P6SM -SHRA SCT015 OVC025
      TEMPO 1418/1421 4SM -SHRA BR OVC015
     FM142100 24015G25KT 6SM -SHRA VCTS SCT012CB OVC025
      TEMPO 1421/1424 4SM -SHRA BR OVC012
     FM150000 30012G20KT 5SM -DZ BR OVC006
     FM150600 32015G25KT P6SM OVC010=

USA.gov is the U.S. government's official web portal to all federal, state and local government web resources and services.